sensor_id;sensor_type;location;lat;lon;timestamp;temperature;humidity
50969;DHT22;36982;51.474;7.228;2022-11-20T00:01:26;-0.60;99.90
50969;DHT22;36982;51.474;7.228;2022-11-20T00:03:53;-0.50;99.90
50969;DHT22;36982;51.474;7.228;2022-11-20T00:06:20;-0.40;99.90
50969;DHT22;36982;51.474;7.228;2022-11-20T00:08:46;-0.30;99.90
50969;DHT22;36982;51.474;7.228;2022-11-20T00:11:20;-0.40;99.90
50969;DHT22;36982;51.474;7.228;2022-11-20T00:13:48;-0.40;99.90
50969;DHT22;36982;51.474;7.228;2022-11-20T00:16:17;-0.40;99.90
50969;DHT22;36982;51.474;7.228;2022-11-20T00:18:43;-0.50;99.90
50969;DHT22;36982;51.474;7.228;2022-11-20T00:21:18;-0.40;99.90
50969;DHT22;36982;51.474;7.228;2022-11-20T00:23:44;-0.40;99.90
50969;DHT22;36982;51.474;7.228;2022-11-20T00:26:13;-0.30;99.90
50969;DHT22;36982;51.474;7.228;2022-11-20T00:28:39;-0.10;99.90
50969;DHT22;36982;51.474;7.228;2022-11-20T00:31:15;-0.10;99.90
50969;DHT22;36982;51.474;7.228;2022-11-20T00:33:42;0.10;99.90
50969;DHT22;36982;51.474;7.228;2022-11-20T00:36:10;0.20;99.90
50969;DHT22;36982;51.474;7.228;2022-11-20T00:38:37;0.30;99.90
50969;DHT22;36982;51.474;7.228;2022-11-20T00:41:05;0.40;99.90
50969;DHT22;36982;51.474;7.228;2022-11-20T00:43:31;0.50;99.90
50969;DHT22;36982;51.474;7.228;2022-11-20T00:46:03;0.60;99.90
50969;DHT22;36982;51.474;7.228;2022-11-20T00:48:29;0.60;99.90
50969;DHT22;36982;51.474;7.228;2022-11-20T00:50:55;0.60;99.90
50969;DHT22;36982;51.474;7.228;2022-11-20T00:53:21;0.40;99.90
50969;DHT22;36982;51.474;7.228;2022-11-20T00:56:01;0.40;99.90
50969;DHT22;36982;51.474;7.228;2022-11-20T00:58:31;0.50;99.90
50969;DHT22;36982;51.474;7.228;2022-11-20T01:01:07;0.60;99.90
50969;DHT22;36982;51.474;7.228;2022-11-20T01:03:38;0.30;99.90
50969;DHT22;36982;51.474;7.228;2022-11-20T01:06:16;0.00;99.90
50969;DHT22;36982;51.474;7.228;2022-11-20T01:08:42;-0.10;99.90
50969;DHT22;36982;51.474;7.228;2022-11-20T01:11:16;-0.10;99.90
50969;DHT22;36982;51.474;7.228;2022-11-20T01:13:43;0.00;99.90
50969;DHT22;36982;51.474;7.228;2022-11-20T01:16:31;0.00;99.90
50969;DHT22;36982;51.474;7.228;2022-11-20T01:18:59;-0.20;99.90
50969;DHT22;36982;51.474;7.228;2022-11-20T01:21:34;-0.20;99.90
50969;DHT22;36982;51.474;7.228;2022-11-20T01:24:01;-0.10;99.90
50969;DHT22;36982;51.474;7.228;2022-11-20T01:26:30;-0.20;99.90
50969;DHT22;36982;51.474;7.228;2022-11-20T01:28:57;-0.20;99.90
50969;DHT22;36982;51.474;7.228;2022-11-20T01:31:25;-0.20;99.90
50969;DHT22;36982;51.474;7.228;2022-11-20T01:33:54;-0.20;99.90
50969;DHT22;36982;51.474;7.228;2022-11-20T01:36:22;-0.20;99.90
50969;DHT22;36982;51.474;7.228;2022-11-20T01:38:51;-0.10;99.90
50969;DHT22;36982;51.474;7.228;2022-11-20T01:41:18;0.00;99.90
50969;DHT22;36982;51.474;7.228;2022-11-20T01:44:03;0.00;99.90
50969;DHT22;36982;51.474;7.228;2022-11-20T01:46:34;0.00;99.90
50969;DHT22;36982;51.474;7.228;2022-11-20T01:49:07;0.00;99.90
50969;DHT22;36982;51.474;7.228;2022-11-20T01:51:43;-0.10;99.90
50969;DHT22;36982;51.474;7.228;2022-11-20T01:54:23;-0.20;99.90
50969;DHT22;36982;51.474;7.228;2022-11-20T01:56:53;-0.20;99.90
50969;DHT22;36982;51.474;7.228;2022-11-20T01:59:20;-0.10;99.90
50969;DHT22;36982;51.474;7.228;2022-11-20T02:01:48;0.00;99.90
50969;DHT22;36982;51.474;7.228;2022-11-20T02:04:13;0.00;99.90
50969;DHT22;36982;51.474;7.228;2022-11-20T02:06:59;0.00;99.90
50969;DHT22;36982;51.474;7.228;2022-11-20T02:09:24;0.00;99.90
50969;DHT22;36982;51.474;7.228;2022-11-20T02:11:51;0.10;99.90
50969;DHT22;36982;51.474;7.228;2022-11-20T02:14:17;0.10;99.90
50969;DHT22;36982;51.474;7.228;2022-11-20T02:16:47;0.10;99.90
50969;DHT22;36982;51.474;7.228;2022-11-20T02:19:37;0.10;99.90
50969;DHT22;36982;51.474;7.228;2022-11-20T02:22:14;0.40;99.90
50969;DHT22;36982;51.474;7.228;2022-11-20T02:24:44;0.50;99.90
50969;DHT22;36982;51.474;7.228;2022-11-20T02:27:12;0.60;99.90
50969;DHT22;36982;51.474;7.228;2022-11-20T02:29:54;0.50;99.90
50969;DHT22;36982;51.474;7.228;2022-11-20T02:34:54;0.60;99.90
50969;DHT22;36982;51.474;7.228;2022-11-20T02:37:20;0.60;99.90
50969;DHT22;36982;51.474;7.228;2022-11-20T02:39:48;0.60;99.90
50969;DHT22;36982;51.474;7.228;2022-11-20T02:42:14;0.50;99.90
50969;DHT22;36982;51.474;7.228;2022-11-20T02:44:40;0.40;99.90
50969;DHT22;36982;51.474;7.228;2022-11-20T02:47:06;0.20;99.90
50969;DHT22;36982;51.474;7.228;2022-11-20T02:49:32;0.10;99.90
50969;DHT22;36982;51.474;7.228;2022-11-20T02:51:58;0.20;99.90
50969;DHT22;36982;51.474;7.228;2022-11-20T02:54:24;0.30;99.90
50969;DHT22;36982;51.474;7.228;2022-11-20T02:56:49;0.30;99.90
50969;DHT22;36982;51.474;7.228;2022-11-20T02:59:15;0.40;99.90
50969;DHT22;36982;51.474;7.228;2022-11-20T03:01:40;0.40;99.90
50969;DHT22;36982;51.474;7.228;2022-11-20T03:04:06;0.40;99.90
50969;DHT22;36982;51.474;7.228;2022-11-20T03:06:32;0.40;99.90
50969;DHT22;36982;51.474;7.228;2022-11-20T03:08:57;0.50;99.90
50969;DHT22;36982;51.474;7.228;2022-11-20T03:11:23;0.70;99.90
50969;DHT22;36982;51.474;7.228;2022-11-20T03:13:49;0.80;99.90
50969;DHT22;36982;51.474;7.228;2022-11-20T03:16:17;0.90;99.90
50969;DHT22;36982;51.474;7.228;2022-11-20T03:18:43;0.80;99.90
50969;DHT22;36982;51.474;7.228;2022-11-20T03:21:10;0.90;99.90
50969;DHT22;36982;51.474;7.228;2022-11-20T03:23:37;0.70;99.90
50969;DHT22;36982;51.474;7.228;2022-11-20T03:28:38;0.80;99.90
50969;DHT22;36982;51.474;7.228;2022-11-20T03:31:12;0.90;99.90
50969;DHT22;36982;51.474;7.228;2022-11-20T03:33:39;1.00;99.90
50969;DHT22;36982;51.474;7.228;2022-11-20T03:36:07;1.00;99.90
50969;DHT22;36982;51.474;7.228;2022-11-20T03:38:34;0.80;99.90
50969;DHT22;36982;51.474;7.228;2022-11-20T03:41:04;0.90;99.90
50969;DHT22;36982;51.474;7.228;2022-11-20T03:43:31;1.10;99.90
50969;DHT22;36982;51.474;7.228;2022-11-20T03:45:57;1.30;99.90
50969;DHT22;36982;51.474;7.228;2022-11-20T03:48:23;1.30;99.90
50969;DHT22;36982;51.474;7.228;2022-11-20T03:50:48;1.10;99.90
50969;DHT22;36982;51.474;7.228;2022-11-20T03:53:15;1.20;99.90
50969;DHT22;36982;51.474;7.228;2022-11-20T03:55:40;1.30;99.90
50969;DHT22;36982;51.474;7.228;2022-11-20T03:58:06;1.40;99.90
50969;DHT22;36982;51.474;7.228;2022-11-20T04:00:31;1.50;99.90
50969;DHT22;36982;51.474;7.228;2022-11-20T04:03:01;1.60;99.90
50969;DHT22;36982;51.474;7.228;2022-11-20T04:05:27;1.70;99.90
50969;DHT22;36982;51.474;7.228;2022-11-20T04:07:53;1.70;99.90
50969;DHT22;36982;51.474;7.228;2022-11-20T04:10:19;1.70;99.90
50969;DHT22;36982;51.474;7.228;2022-11-20T04:12:44;1.70;99.90
50969;DHT22;36982;51.474;7.228;2022-11-20T04:15:10;1.70;99.90
50969;DHT22;36982;51.474;7.228;2022-11-20T04:17:35;1.70;99.90
50969;DHT22;36982;51.474;7.228;2022-11-20T04:20:01;1.70;99.90
50969;DHT22;36982;51.474;7.228;2022-11-20T04:22:27;1.80;99.90
50969;DHT22;36982;51.474;7.228;2022-11-20T04:24:53;1.80;99.90
50969;DHT22;36982;51.474;7.228;2022-11-20T04:27:18;1.80;99.90
50969;DHT22;36982;51.474;7.228;2022-11-20T04:29:44;1.60;99.90
50969;DHT22;36982;51.474;7.228;2022-11-20T04:32:10;1.40;99.90
50969;DHT22;36982;51.474;7.228;2022-11-20T04:34:35;1.50;99.90
50969;DHT22;36982;51.474;7.228;2022-11-20T04:37:01;1.70;99.90
50969;DHT22;36982;51.474;7.228;2022-11-20T04:39:26;1.70;99.90
50969;DHT22;36982;51.474;7.228;2022-11-20T04:41:52;1.70;99.90
50969;DHT22;36982;51.474;7.228;2022-11-20T04:44:38;1.60;99.90
50969;DHT22;36982;51.474;7.228;2022-11-20T04:47:03;1.60;99.90
50969;DHT22;36982;51.474;7.228;2022-11-20T04:49:29;1.80;99.90
50969;DHT22;36982;51.474;7.228;2022-11-20T04:51:55;1.80;99.90
50969;DHT22;36982;51.474;7.228;2022-11-20T04:54:20;1.90;99.90
50969;DHT22;36982;51.474;7.228;2022-11-20T04:56:49;1.90;99.90
50969;DHT22;36982;51.474;7.228;2022-11-20T04:59:15;1.90;99.90
50969;DHT22;36982;51.474;7.228;2022-11-20T05:01:41;1.80;99.90
50969;DHT22;36982;51.474;7.228;2022-11-20T05:04:06;1.80;99.90
50969;DHT22;36982;51.474;7.228;2022-11-20T05:06:32;1.80;99.90
50969;DHT22;36982;51.474;7.228;2022-11-20T05:08:58;1.70;99.90
50969;DHT22;36982;51.474;7.228;2022-11-20T05:11:24;1.80;99.90
50969;DHT22;36982;51.474;7.228;2022-11-20T05:13:51;1.70;99.90
50969;DHT22;36982;51.474;7.228;2022-11-20T05:16:19;1.70;99.90
50969;DHT22;36982;51.474;7.228;2022-11-20T05:18:45;1.80;99.90
50969;DHT22;36982;51.474;7.228;2022-11-20T05:21:12;1.70;99.90
50969;DHT22;36982;51.474;7.228;2022-11-20T05:23:38;1.80;99.90
50969;DHT22;36982;51.474;7.228;2022-11-20T05:26:05;1.90;99.90
50969;DHT22;36982;51.474;7.228;2022-11-20T05:28:32;1.70;99.90
50969;DHT22;36982;51.474;7.228;2022-11-20T05:31:09;1.60;99.90
50969;DHT22;36982;51.474;7.228;2022-11-20T05:33:35;1.60;99.90
50969;DHT22;36982;51.474;7.228;2022-11-20T05:36:02;1.60;99.90
50969;DHT22;36982;51.474;7.228;2022-11-20T05:38:28;1.50;99.90
50969;DHT22;36982;51.474;7.228;2022-11-20T05:40:53;1.50;99.90
50969;DHT22;36982;51.474;7.228;2022-11-20T05:43:19;1.60;99.90
50969;DHT22;36982;51.474;7.228;2022-11-20T05:45:55;1.60;99.90
50969;DHT22;36982;51.474;7.228;2022-11-20T05:48:20;1.70;99.90
50969;DHT22;36982;51.474;7.228;2022-11-20T05:50:47;1.70;99.90
50969;DHT22;36982;51.474;7.228;2022-11-20T05:53:13;1.70;99.90
50969;DHT22;36982;51.474;7.228;2022-11-20T05:55:39;1.70;99.90
50969;DHT22;36982;51.474;7.228;2022-11-20T05:58:04;1.80;99.90
50969;DHT22;36982;51.474;7.228;2022-11-20T06:00:30;1.80;99.90
50969;DHT22;36982;51.474;7.228;2022-11-20T06:02:55;1.90;99.90
50969;DHT22;36982;51.474;7.228;2022-11-20T06:05:21;1.70;99.90
50969;DHT22;36982;51.474;7.228;2022-11-20T06:07:47;1.70;99.90
50969;DHT22;36982;51.474;7.228;2022-11-20T06:10:13;1.60;99.90
50969;DHT22;36982;51.474;7.228;2022-11-20T06:12:38;1.50;99.90
50969;DHT22;36982;51.474;7.228;2022-11-20T06:15:05;1.50;99.90
50969;DHT22;36982;51.474;7.228;2022-11-20T06:17:30;1.60;99.90
50969;DHT22;36982;51.474;7.228;2022-11-20T06:19:56;1.40;99.90
50969;DHT22;36982;51.474;7.228;2022-11-20T06:22:22;1.50;99.90
50969;DHT22;36982;51.474;7.228;2022-11-20T06:24:47;1.40;99.90
50969;DHT22;36982;51.474;7.228;2022-11-20T06:27:13;1.60;99.90
50969;DHT22;36982;51.474;7.228;2022-11-20T06:29:39;1.60;99.90
50969;DHT22;36982;51.474;7.228;2022-11-20T06:32:04;1.70;99.90
50969;DHT22;36982;51.474;7.228;2022-11-20T06:34:30;1.70;99.90
50969;DHT22;36982;51.474;7.228;2022-11-20T06:36:55;1.70;99.90
50969;DHT22;36982;51.474;7.228;2022-11-20T06:39:21;1.60;99.90
50969;DHT22;36982;51.474;7.228;2022-11-20T06:41:47;1.70;99.90
50969;DHT22;36982;51.474;7.228;2022-11-20T06:44:12;1.70;99.90
50969;DHT22;36982;51.474;7.228;2022-11-20T06:46:38;1.70;99.90
50969;DHT22;36982;51.474;7.228;2022-11-20T06:49:03;1.60;99.90
50969;DHT22;36982;51.474;7.228;2022-11-20T06:51:29;1.50;99.90
50969;DHT22;36982;51.474;7.228;2022-11-20T06:53:54;1.50;99.90
50969;DHT22;36982;51.474;7.228;2022-11-20T06:56:20;1.50;99.90
50969;DHT22;36982;51.474;7.228;2022-11-20T06:58:46;1.50;99.90
50969;DHT22;36982;51.474;7.228;2022-11-20T07:01:13;1.40;99.90
50969;DHT22;36982;51.474;7.228;2022-11-20T07:03:40;1.40;99.90
50969;DHT22;36982;51.474;7.228;2022-11-20T07:06:06;1.30;99.90
50969;DHT22;36982;51.474;7.228;2022-11-20T07:08:32;1.40;99.90
50969;DHT22;36982;51.474;7.228;2022-11-20T07:10:59;1.50;99.90
50969;DHT22;36982;51.474;7.228;2022-11-20T07:13:26;1.40;99.90
50969;DHT22;36982;51.474;7.228;2022-11-20T07:15:52;1.40;99.90
50969;DHT22;36982;51.474;7.228;2022-11-20T07:18:18;1.40;99.90
50969;DHT22;36982;51.474;7.228;2022-11-20T07:20:43;1.20;99.90
50969;DHT22;36982;51.474;7.228;2022-11-20T07:23:09;1.10;99.90
50969;DHT22;36982;51.474;7.228;2022-11-20T07:25:34;1.20;99.90
50969;DHT22;36982;51.474;7.228;2022-11-20T07:28:02;1.20;99.90
50969;DHT22;36982;51.474;7.228;2022-11-20T07:30:28;1.20;99.90
50969;DHT22;36982;51.474;7.228;2022-11-20T07:32:54;1.00;99.90
50969;DHT22;36982;51.474;7.228;2022-11-20T07:35:21;1.00;99.90
50969;DHT22;36982;51.474;7.228;2022-11-20T07:37:47;1.00;99.90
50969;DHT22;36982;51.474;7.228;2022-11-20T07:40:14;1.00;99.90
50969;DHT22;36982;51.474;7.228;2022-11-20T07:42:47;1.10;99.90
50969;DHT22;36982;51.474;7.228;2022-11-20T07:45:13;1.20;99.90
50969;DHT22;36982;51.474;7.228;2022-11-20T07:47:38;1.10;99.90
50969;DHT22;36982;51.474;7.228;2022-11-20T07:50:04;1.10;99.90
50969;DHT22;36982;51.474;7.228;2022-11-20T07:52:30;1.20;99.90
50969;DHT22;36982;51.474;7.228;2022-11-20T07:54:56;1.10;99.90
50969;DHT22;36982;51.474;7.228;2022-11-20T07:57:21;1.10;99.90
50969;DHT22;36982;51.474;7.228;2022-11-20T07:59:47;1.00;99.90
50969;DHT22;36982;51.474;7.228;2022-11-20T08:02:12;0.80;99.90
50969;DHT22;36982;51.474;7.228;2022-11-20T08:04:38;0.90;99.90
50969;DHT22;36982;51.474;7.228;2022-11-20T08:07:04;1.00;99.90
50969;DHT22;36982;51.474;7.228;2022-11-20T08:09:29;1.00;99.90
50969;DHT22;36982;51.474;7.228;2022-11-20T08:11:55;1.00;99.90
50969;DHT22;36982;51.474;7.228;2022-11-20T08:14:39;1.10;99.90
50969;DHT22;36982;51.474;7.228;2022-11-20T08:17:05;1.20;99.90
50969;DHT22;36982;51.474;7.228;2022-11-20T08:19:30;1.30;99.90
50969;DHT22;36982;51.474;7.228;2022-11-20T08:21:56;1.30;99.90
50969;DHT22;36982;51.474;7.228;2022-11-20T08:24:21;1.30;99.90
50969;DHT22;36982;51.474;7.228;2022-11-20T08:26:47;1.20;99.90
50969;DHT22;36982;51.474;7.228;2022-11-20T08:29:12;1.20;99.90
50969;DHT22;36982;51.474;7.228;2022-11-20T08:31:38;1.30;99.90
50969;DHT22;36982;51.474;7.228;2022-11-20T08:34:04;1.30;99.90
50969;DHT22;36982;51.474;7.228;2022-11-20T08:36:32;1.40;99.90
50969;DHT22;36982;51.474;7.228;2022-11-20T08:38:58;1.30;99.90
50969;DHT22;36982;51.474;7.228;2022-11-20T08:41:24;1.30;99.90
50969;DHT22;36982;51.474;7.228;2022-11-20T08:44:02;1.30;99.90
50969;DHT22;36982;51.474;7.228;2022-11-20T08:46:35;1.40;99.90
50969;DHT22;36982;51.474;7.228;2022-11-20T08:49:03;1.30;99.90
50969;DHT22;36982;51.474;7.228;2022-11-20T08:51:29;1.30;99.90
50969;DHT22;36982;51.474;7.228;2022-11-20T08:53:55;1.30;99.90
50969;DHT22;36982;51.474;7.228;2022-11-20T08:56:21;1.40;99.90
50969;DHT22;36982;51.474;7.228;2022-11-20T08:58:46;1.50;99.90
50969;DHT22;36982;51.474;7.228;2022-11-20T09:01:12;1.70;99.90
50969;DHT22;36982;51.474;7.228;2022-11-20T09:03:38;1.70;99.90
50969;DHT22;36982;51.474;7.228;2022-11-20T09:06:05;1.80;99.90
50969;DHT22;36982;51.474;7.228;2022-11-20T09:08:31;1.80;99.90
50969;DHT22;36982;51.474;7.228;2022-11-20T09:10:58;1.80;99.90
50969;DHT22;36982;51.474;7.228;2022-11-20T09:13:24;1.90;99.90
50969;DHT22;36982;51.474;7.228;2022-11-20T09:15:55;1.80;99.90
50969;DHT22;36982;51.474;7.228;2022-11-20T09:18:22;1.80;99.90
50969;DHT22;36982;51.474;7.228;2022-11-20T09:20:48;1.90;99.90
50969;DHT22;36982;51.474;7.228;2022-11-20T09:23:14;2.00;99.90
50969;DHT22;36982;51.474;7.228;2022-11-20T09:25:41;1.90;99.90
50969;DHT22;36982;51.474;7.228;2022-11-20T09:28:06;2.00;99.90
50969;DHT22;36982;51.474;7.228;2022-11-20T09:30:32;2.20;99.90
50969;DHT22;36982;51.474;7.228;2022-11-20T09:32:58;2.40;99.90
50969;DHT22;36982;51.474;7.228;2022-11-20T09:35:23;2.50;99.90
50969;DHT22;36982;51.474;7.228;2022-11-20T09:37:49;2.60;99.90
50969;DHT22;36982;51.474;7.228;2022-11-20T09:40:24;2.70;99.90
50969;DHT22;36982;51.474;7.228;2022-11-20T09:42:59;3.00;99.90
50969;DHT22;36982;51.474;7.228;2022-11-20T09:45:35;3.30;99.90
50969;DHT22;36982;51.474;7.228;2022-11-20T09:48:33;3.40;99.90
50969;DHT22;36982;51.474;7.228;2022-11-20T09:54:11;3.80;99.90
50969;DHT22;36982;51.474;7.228;2022-11-20T09:56:43;3.90;99.90
50969;DHT22;36982;51.474;7.228;2022-11-20T09:59:35;4.00;99.90
50969;DHT22;36982;51.474;7.228;2022-11-20T10:02:30;4.20;99.90
50969;DHT22;36982;51.474;7.228;2022-11-20T10:05:06;4.40;99.90
50969;DHT22;36982;51.474;7.228;2022-11-20T10:10:59;4.20;99.90
50969;DHT22;36982;51.474;7.228;2022-11-20T10:13:47;4.30;99.90
50969;DHT22;36982;51.474;7.228;2022-11-20T10:24:44;4.70;99.90
50969;DHT22;36982;51.474;7.228;2022-11-20T10:27:52;4.90;99.90
50969;DHT22;36982;51.474;7.228;2022-11-20T10:30:15;5.00;99.90
50969;DHT22;36982;51.474;7.228;2022-11-20T10:33:06;4.80;99.90
50969;DHT22;36982;51.474;7.228;2022-11-20T10:35:44;4.70;99.90
50969;DHT22;36982;51.474;7.228;2022-11-20T10:38:33;4.80;99.90
50969;DHT22;36982;51.474;7.228;2022-11-20T10:41:02;4.90;99.90
50969;DHT22;36982;51.474;7.228;2022-11-20T10:43:48;4.90;99.90
50969;DHT22;36982;51.474;7.228;2022-11-20T10:46:20;5.00;99.90
50969;DHT22;36982;51.474;7.228;2022-11-20T10:48:48;4.90;99.90
50969;DHT22;36982;51.474;7.228;2022-11-20T10:51:44;4.90;99.90
50969;DHT22;36982;51.474;7.228;2022-11-20T10:56:52;4.70;99.90
50969;DHT22;36982;51.474;7.228;2022-11-20T10:59:51;4.70;99.90
50969;DHT22;36982;51.474;7.228;2022-11-20T11:02:23;4.50;99.90
50969;DHT22;36982;51.474;7.228;2022-11-20T11:04:51;4.50;99.90
50969;DHT22;36982;51.474;7.228;2022-11-20T11:07:22;4.50;99.90
50969;DHT22;36982;51.474;7.228;2022-11-20T11:09:52;4.40;99.90
50969;DHT22;36982;51.474;7.228;2022-11-20T11:12:19;4.30;99.90
50969;DHT22;36982;51.474;7.228;2022-11-20T11:14:56;4.40;99.90
50969;DHT22;36982;51.474;7.228;2022-11-20T11:17:30;4.60;99.90
50969;DHT22;36982;51.474;7.228;2022-11-20T11:22:34;4.70;99.90
50969;DHT22;36982;51.474;7.228;2022-11-20T11:24:59;4.80;99.90
50969;DHT22;36982;51.474;7.228;2022-11-20T11:27:25;4.80;99.90
50969;DHT22;36982;51.474;7.228;2022-11-20T11:30:02;4.70;99.90
50969;DHT22;36982;51.474;7.228;2022-11-20T11:32:28;4.90;99.90
50969;DHT22;36982;51.474;7.228;2022-11-20T11:35:05;5.00;99.90
50969;DHT22;36982;51.474;7.228;2022-11-20T11:37:36;5.10;99.90
50969;DHT22;36982;51.474;7.228;2022-11-20T11:40:04;5.00;99.90
50969;DHT22;36982;51.474;7.228;2022-11-20T11:42:31;4.90;99.90
50969;DHT22;36982;51.474;7.228;2022-11-20T11:44:59;4.80;99.90
50969;DHT22;36982;51.474;7.228;2022-11-20T11:47:36;4.90;99.90
50969;DHT22;36982;51.474;7.228;2022-11-20T11:55:40;5.30;99.90
50969;DHT22;36982;51.474;7.228;2022-11-20T12:00:50;5.40;99.90
50969;DHT22;36982;51.474;7.228;2022-11-20T12:03:29;5.60;99.90
50969;DHT22;36982;51.474;7.228;2022-11-20T12:06:01;5.60;99.90
50969;DHT22;36982;51.474;7.228;2022-11-20T12:08:38;5.70;99.90
50969;DHT22;36982;51.474;7.228;2022-11-20T12:11:11;5.80;99.90
50969;DHT22;36982;51.474;7.228;2022-11-20T12:16:11;5.70;99.90
50969;DHT22;36982;51.474;7.228;2022-11-20T12:18:38;5.60;99.90
50969;DHT22;36982;51.474;7.228;2022-11-20T12:21:28;5.50;99.90
50969;DHT22;36982;51.474;7.228;2022-11-20T12:49:59;5.70;99.90
50969;DHT22;36982;51.474;7.228;2022-11-20T12:52:38;5.50;99.90
50969;DHT22;36982;51.474;7.228;2022-11-20T12:55:23;5.50;99.90
50969;DHT22;36982;51.474;7.228;2022-11-20T13:00:24;5.50;99.90
50969;DHT22;36982;51.474;7.228;2022-11-20T13:07:58;5.50;99.90
50969;DHT22;36982;51.474;7.228;2022-11-20T13:10:46;5.40;99.90
50969;DHT22;36982;51.474;7.228;2022-11-20T13:18:38;5.10;99.90
50969;DHT22;36982;51.474;7.228;2022-11-20T13:21:16;5.00;99.90
50969;DHT22;36982;51.474;7.228;2022-11-20T13:23:42;4.90;99.90
50969;DHT22;36982;51.474;7.228;2022-11-20T13:26:22;4.90;99.90
50969;DHT22;36982;51.474;7.228;2022-11-20T13:29:03;5.00;99.90
50969;DHT22;36982;51.474;7.228;2022-11-20T13:31:35;5.00;99.90
50969;DHT22;36982;51.474;7.228;2022-11-20T13:34:04;4.90;99.90
50969;DHT22;36982;51.474;7.228;2022-11-20T13:36:31;5.00;99.90
50969;DHT22;36982;51.474;7.228;2022-11-20T13:38:58;4.90;99.90
50969;DHT22;36982;51.474;7.228;2022-11-20T13:41:33;5.00;99.90
50969;DHT22;36982;51.474;7.228;2022-11-20T13:51:50;5.20;99.90
50969;DHT22;36982;51.474;7.228;2022-11-20T14:00:23;5.20;99.90
50969;DHT22;36982;51.474;7.228;2022-11-20T14:03:22;5.00;99.90
50969;DHT22;36982;51.474;7.228;2022-11-20T14:05:56;5.00;99.90
50969;DHT22;36982;51.474;7.228;2022-11-20T14:08:46;5.10;99.90
50969;DHT22;36982;51.474;7.228;2022-11-20T14:11:22;5.20;99.90
50969;DHT22;36982;51.474;7.228;2022-11-20T14:13:58;5.20;99.90
50969;DHT22;36982;51.474;7.228;2022-11-20T14:16:27;5.00;99.90
50969;DHT22;36982;51.474;7.228;2022-11-20T14:18:53;4.90;99.90
50969;DHT22;36982;51.474;7.228;2022-11-20T14:21:28;5.10;99.90
50969;DHT22;36982;51.474;7.228;2022-11-20T14:24:10;5.00;99.90
50969;DHT22;36982;51.474;7.228;2022-11-20T14:26:38;5.00;99.90
50969;DHT22;36982;51.474;7.228;2022-11-20T14:29:18;5.10;99.90
50969;DHT22;36982;51.474;7.228;2022-11-20T14:31:45;5.10;99.90
50969;DHT22;36982;51.474;7.228;2022-11-20T14:34:26;5.00;99.90
50969;DHT22;36982;51.474;7.228;2022-11-20T14:36:56;5.10;99.90
50969;DHT22;36982;51.474;7.228;2022-11-20T14:39:31;5.20;99.90
50969;DHT22;36982;51.474;7.228;2022-11-20T14:41:58;5.10;99.90
50969;DHT22;36982;51.474;7.228;2022-11-20T14:44:27;5.00;99.90
50969;DHT22;36982;51.474;7.228;2022-11-20T14:46:55;5.00;99.90
50969;DHT22;36982;51.474;7.228;2022-11-20T14:49:21;5.10;99.90
50969;DHT22;36982;51.474;7.228;2022-11-20T14:51:46;5.00;99.90
50969;DHT22;36982;51.474;7.228;2022-11-20T14:54:23;4.90;99.90
50969;DHT22;36982;51.474;7.228;2022-11-20T14:57:02;4.90;99.90
50969;DHT22;36982;51.474;7.228;2022-11-20T14:59:32;4.80;99.90
50969;DHT22;36982;51.474;7.228;2022-11-20T15:02:08;4.70;99.90
50969;DHT22;36982;51.474;7.228;2022-11-20T15:04:51;4.60;99.90
50969;DHT22;36982;51.474;7.228;2022-11-20T15:07:29;4.50;99.90
50969;DHT22;36982;51.474;7.228;2022-11-20T15:10:00;4.40;99.90
50969;DHT22;36982;51.474;7.228;2022-11-20T15:12:25;4.50;99.90
50969;DHT22;36982;51.474;7.228;2022-11-20T15:14:51;4.50;99.90
50969;DHT22;36982;51.474;7.228;2022-11-20T15:17:17;4.50;99.90
50969;DHT22;36982;51.474;7.228;2022-11-20T15:19:42;4.50;99.90
50969;DHT22;36982;51.474;7.228;2022-11-20T15:22:12;4.50;99.90
50969;DHT22;36982;51.474;7.228;2022-11-20T15:24:41;4.40;99.90
50969;DHT22;36982;51.474;7.228;2022-11-20T15:27:08;4.30;99.90
50969;DHT22;36982;51.474;7.228;2022-11-20T15:29:34;4.20;99.90
50969;DHT22;36982;51.474;7.228;2022-11-20T15:32:00;4.10;99.90
50969;DHT22;36982;51.474;7.228;2022-11-20T15:34:26;4.20;99.90
50969;DHT22;36982;51.474;7.228;2022-11-20T15:36:52;4.10;99.90
50969;DHT22;36982;51.474;7.228;2022-11-20T15:39:18;4.20;99.90
50969;DHT22;36982;51.474;7.228;2022-11-20T15:41:44;4.30;99.90
50969;DHT22;36982;51.474;7.228;2022-11-20T15:44:09;4.20;99.90
50969;DHT22;36982;51.474;7.228;2022-11-20T15:46:37;4.20;99.90
50969;DHT22;36982;51.474;7.228;2022-11-20T15:49:06;4.20;99.90
50969;DHT22;36982;51.474;7.228;2022-11-20T15:51:38;4.10;99.90
50969;DHT22;36982;51.474;7.228;2022-11-20T15:54:19;4.20;99.90
50969;DHT22;36982;51.474;7.228;2022-11-20T15:56:46;4.20;99.90
50969;DHT22;36982;51.474;7.228;2022-11-20T15:59:12;4.20;99.90
50969;DHT22;36982;51.474;7.228;2022-11-20T16:01:40;4.20;99.90
50969;DHT22;36982;51.474;7.228;2022-11-20T16:04:10;4.10;99.90
50969;DHT22;36982;51.474;7.228;2022-11-20T16:06:36;4.20;99.90
50969;DHT22;36982;51.474;7.228;2022-11-20T16:09:01;4.20;99.90
50969;DHT22;36982;51.474;7.228;2022-11-20T16:11:27;4.10;99.90
50969;DHT22;36982;51.474;7.228;2022-11-20T16:13:53;4.20;99.90
50969;DHT22;36982;51.474;7.228;2022-11-20T16:16:37;4.30;99.90
50969;DHT22;36982;51.474;7.228;2022-11-20T16:19:04;4.00;99.90
50969;DHT22;36982;51.474;7.228;2022-11-20T16:21:31;3.90;99.90
50969;DHT22;36982;51.474;7.228;2022-11-20T16:24:01;4.10;99.90
50969;DHT22;36982;51.474;7.228;2022-11-20T16:26:28;4.00;99.90
50969;DHT22;36982;51.474;7.228;2022-11-20T16:28:54;4.10;99.90
50969;DHT22;36982;51.474;7.228;2022-11-20T16:31:20;4.10;99.90
50969;DHT22;36982;51.474;7.228;2022-11-20T16:33:58;4.10;99.90
50969;DHT22;36982;51.474;7.228;2022-11-20T16:36:26;4.30;99.90
50969;DHT22;36982;51.474;7.228;2022-11-20T16:38:57;4.10;99.90
50969;DHT22;36982;51.474;7.228;2022-11-20T16:41:30;4.10;99.90
50969;DHT22;36982;51.474;7.228;2022-11-20T16:43:58;4.10;99.90
50969;DHT22;36982;51.474;7.228;2022-11-20T16:46:25;4.00;99.90
50969;DHT22;36982;51.474;7.228;2022-11-20T16:48:58;4.00;99.90
50969;DHT22;36982;51.474;7.228;2022-11-20T16:51:25;4.00;99.90
50969;DHT22;36982;51.474;7.228;2022-11-20T16:53:51;4.10;99.90
50969;DHT22;36982;51.474;7.228;2022-11-20T16:56:20;4.20;99.90
50969;DHT22;36982;51.474;7.228;2022-11-20T16:58:47;4.20;99.90
50969;DHT22;36982;51.474;7.228;2022-11-20T17:01:15;4.30;99.90
50969;DHT22;36982;51.474;7.228;2022-11-20T17:04:09;4.30;99.90
50969;DHT22;36982;51.474;7.228;2022-11-20T17:06:41;4.40;99.90
50969;DHT22;36982;51.474;7.228;2022-11-20T17:09:09;4.50;99.90
50969;DHT22;36982;51.474;7.228;2022-11-20T17:11:35;4.50;99.90
50969;DHT22;36982;51.474;7.228;2022-11-20T17:14:02;4.40;99.90
50969;DHT22;36982;51.474;7.228;2022-11-20T17:16:29;4.40;99.90
50969;DHT22;36982;51.474;7.228;2022-11-20T17:18:56;4.50;99.90
50969;DHT22;36982;51.474;7.228;2022-11-20T17:21:22;4.60;99.90
50969;DHT22;36982;51.474;7.228;2022-11-20T17:23:48;4.70;99.90
50969;DHT22;36982;51.474;7.228;2022-11-20T17:26:19;4.60;99.90
50969;DHT22;36982;51.474;7.228;2022-11-20T17:28:51;4.70;99.90